Time;durP1;ratioP1;P1;durP2;ratioP2;P2;SDS_P1;SDS_P2;PMS_P1;PMS_P2;Temp;Humidity;BMP_temperature;BMP_pressure;BME280_temperature;BME280_humidity;BME280_pressure;Samples;Min_cycle;Max_cycle;Signal;HPM_P1;HPM_P2
2023/05/12 00:00:25;;;;;;;1.10;0.85;;;13.00;99.90;;;;;;5096510;28;20469;-58
2023/05/12 00:02:52;;;;;;;1.10;0.80;;;13.00;99.90;;;;;;5095624;28;20444;-58
2023/05/12 00:05:21;;;;;;;1.70;0.90;;;13.00;99.90;;;;;;5095489;28;20429;-58
2023/05/12 00:07:48;;;;;;;1.30;0.80;;;12.90;99.90;;;;;;5093952;28;20433;-58
2023/05/12 00:10:15;;;;;;;1.60;1.20;;;12.90;99.90;;;;;;5095690;28;20432;-58
2023/05/12 00:12:43;;;;;;;1.38;1.00;;;12.90;99.90;;;;;;5094755;28;20429;-58
2023/05/12 00:15:10;;;;;;;1.50;0.90;;;12.90;99.90;;;;;;5094565;28;20849;-58
2023/05/12 00:17:37;;;;;;;1.60;1.08;;;12.80;99.90;;;;;;5095555;28;20430;-59
2023/05/12 00:20:05;;;;;;;1.60;1.05;;;12.80;99.90;;;;;;5095238;28;20418;-57
2023/05/12 00:22:33;;;;;;;1.30;1.00;;;12.70;99.90;;;;;;5095405;28;20733;-58
2023/05/12 00:25:00;;;;;;;1.85;1.10;;;12.80;99.90;;;;;;5094795;28;20425;-58
2023/05/12 00:27:29;;;;;;;1.40;1.00;;;12.80;99.90;;;;;;5099498;28;20500;-56
2023/05/12 00:29:56;;;;;;;2.00;1.40;;;12.80;99.90;;;;;;5114997;28;20476;-57
2023/05/12 00:32:23;;;;;;;1.50;1.00;;;12.80;99.90;;;;;;5115272;28;20824;-58
2023/05/12 00:34:52;;;;;;;1.40;1.10;;;12.90;99.90;;;;;;5115212;28;20851;-56
2023/05/12 00:37:19;;;;;;;1.70;1.00;;;12.90;99.90;;;;;;5114660;28;20439;-58
2023/05/12 00:39:47;;;;;;;1.60;1.10;;;12.90;99.90;;;;;;5094012;28;20429;-58
2023/05/12 00:42:14;;;;;;;1.50;1.10;;;12.90;99.90;;;;;;5093944;28;20491;-58
2023/05/12 00:44:41;;;;;;;1.52;0.93;;;12.90;99.90;;;;;;5094101;28;20421;-58
2023/05/12 00:47:09;;;;;;;1.20;0.90;;;13.00;99.90;;;;;;5109134;28;20505;-57
2023/05/12 00:49:36;;;;;;;1.40;1.13;;;13.00;99.90;;;;;;5114191;28;20480;-58
2023/05/12 00:52:04;;;;;;;1.50;1.10;;;13.00;99.90;;;;;;5108967;28;20790;-58
2023/05/12 00:54:32;;;;;;;1.70;1.20;;;12.90;99.90;;;;;;5110772;28;20428;-57
2023/05/12 00:57:00;;;;;;;1.90;1.30;;;12.80;99.90;;;;;;5112622;28;20774;-57
2023/05/12 00:59:28;;;;;;;1.85;1.30;;;12.60;99.90;;;;;;5097127;28;20433;-58
2023/05/12 01:01:55;;;;;;;1.70;1.10;;;12.70;99.90;;;;;;5095013;28;20468;-58
2023/05/12 01:04:23;;;;;;;1.65;1.30;;;12.60;99.90;;;;;;5095186;28;20464;-58
2023/05/12 01:06:55;;;;;;;2.20;1.40;;;12.60;99.90;;;;;;5101793;28;20884;-57
2023/05/12 01:09:22;;;;;;;1.77;1.30;;;12.70;99.90;;;;;;5115395;28;20420;-58
2023/05/12 01:11:49;;;;;;;2.70;1.30;;;12.70;99.90;;;;;;5115777;28;20558;-58
2023/05/12 01:14:17;;;;;;;1.40;1.10;;;12.80;99.90;;;;;;5115476;28;20428;-58
2023/05/12 01:16:51;;;;;;;1.60;1.20;;;12.90;99.90;;;;;;5115433;28;20428;-56
2023/05/12 01:19:38;;;;;;;1.55;1.27;;;13.00;99.90;;;;;;5116425;28;20420;-56
2023/05/12 01:22:05;;;;;;;2.00;1.60;;;12.90;99.90;;;;;;5118045;28;20435;-58
2023/05/12 01:24:36;;;;;;;2.30;1.35;;;12.80;99.90;;;;;;5119415;28;20428;-57
2023/05/12 01:27:06;;;;;;;1.70;1.40;;;12.70;99.90;;;;;;5118873;28;20424;-53
2023/05/12 01:29:34;;;;;;;1.90;1.40;;;12.70;99.90;;;;;;5118381;28;20419;-54
2023/05/12 01:32:02;;;;;;;2.60;1.77;;;12.70;99.90;;;;;;5117216;28;20489;-58
2023/05/12 01:34:28;;;;;;;1.90;1.40;;;12.70;99.90;;;;;;5118578;28;20435;-57
2023/05/12 01:36:55;;;;;;;1.70;1.60;;;12.70;99.90;;;;;;5118965;28;20428;-57
2023/05/12 01:39:23;;;;;;;2.30;1.30;;;12.70;99.90;;;;;;5118840;28;20473;-57
2023/05/12 01:41:50;;;;;;;1.88;1.60;;;12.90;99.90;;;;;;5119095;28;20897;-57
2023/05/12 01:44:19;;;;;;;1.70;1.30;;;12.90;99.90;;;;;;5119270;28;20784;-57
2023/05/12 01:46:47;;;;;;;3.35;1.90;;;12.90;99.90;;;;;;5117780;28;20476;-58
2023/05/12 01:49:14;;;;;;;2.20;1.55;;;12.90;99.90;;;;;;5115906;28;20439;-58
2023/05/12 01:51:41;;;;;;;1.83;1.35;;;12.90;99.90;;;;;;5116325;28;20481;-58
2023/05/12 01:54:08;;;;;;;2.03;1.45;;;12.90;99.90;;;;;;5116403;28;20435;-58
2023/05/12 01:56:35;;;;;;;1.80;1.40;;;12.90;99.90;;;;;;5114715;28;20438;-58
2023/05/12 01:59:02;;;;;;;1.70;1.40;;;12.90;99.90;;;;;;5116671;28;20476;-58
2023/05/12 02:01:31;;;;;;;2.70;1.50;;;12.80;99.90;;;;;;5117696;28;20428;-58
2023/05/12 02:03:58;;;;;;;2.20;1.60;;;12.90;99.90;;;;;;5116010;28;20851;-58
2023/05/12 02:06:26;;;;;;;2.13;1.30;;;12.90;99.90;;;;;;5116848;28;20525;-59
2023/05/12 02:08:53;;;;;;;2.60;1.60;;;12.90;99.90;;;;;;5117953;28;20428;-58
2023/05/12 02:11:20;;;;;;;2.10;1.70;;;12.90;99.90;;;;;;5118009;28;20432;-58
2023/05/12 02:13:47;;;;;;;2.17;1.50;;;12.90;99.90;;;;;;5116361;28;20742;-58
2023/05/12 02:16:14;;;;;;;2.70;1.63;;;12.90;99.90;;;;;;5137158;27;20430;-58
2023/05/12 02:18:43;;;;;;;2.45;1.90;;;12.90;99.90;;;;;;5117030;27;20477;-58
2023/05/12 02:21:10;;;;;;;2.22;1.73;;;12.80;99.90;;;;;;5117861;28;20778;-57
2023/05/12 02:23:37;;;;;;;2.30;1.77;;;12.80;99.90;;;;;;5117845;28;20420;-58
2023/05/12 02:26:06;;;;;;;2.10;1.60;;;12.70;99.90;;;;;;5116981;28;20434;-57
2023/05/12 02:28:33;;;;;;;2.20;1.30;;;12.80;99.90;;;;;;5115756;28;20428;-57
2023/05/12 02:31:00;;;;;;;2.95;1.85;;;12.70;99.90;;;;;;5117035;28;20432;-57
2023/05/12 02:33:27;;;;;;;3.13;1.98;;;12.70;99.90;;;;;;5117417;28;20420;-57
2023/05/12 02:35:55;;;;;;;2.10;1.60;;;12.70;99.90;;;;;;5118332;28;20436;-57
2023/05/12 02:38:22;;;;;;;4.30;1.90;;;12.70;99.90;;;;;;5117952;28;20489;-56
2023/05/12 02:40:49;;;;;;;2.00;1.60;;;12.70;99.90;;;;;;5116752;28;20472;-57
2023/05/12 02:43:16;;;;;;;2.70;1.80;;;12.70;99.90;;;;;;5117336;28;20485;-57
2023/05/12 02:45:43;;;;;;;2.70;1.98;;;12.70;99.90;;;;;;5117585;28;20420;-57
2023/05/12 02:48:10;;;;;;;2.38;1.90;;;12.70;99.90;;;;;;5116760;28;20424;-58
2023/05/12 02:50:37;;;;;;;3.13;1.95;;;12.70;99.90;;;;;;5115198;28;20428;-58
2023/05/12 02:53:06;;;;;;;3.20;1.90;;;12.60;99.90;;;;;;5115903;28;20416;-58
2023/05/12 02:55:33;;;;;;;4.80;2.25;;;12.60;99.90;;;;;;5116155;28;20428;-58
2023/05/12 02:58:00;;;;;;;2.90;1.98;;;12.60;99.90;;;;;;5116691;28;20472;-58
2023/05/12 03:00:27;;;;;;;3.17;2.28;;;12.50;99.90;;;;;;5116293;28;20496;-58
2023/05/12 03:02:54;;;;;;;2.93;2.40;;;12.50;99.90;;;;;;5115744;28;20443;-56
2023/05/12 03:05:21;;;;;;;3.03;2.50;;;12.40;99.90;;;;;;5116225;28;20420;-57
2023/05/12 03:07:49;;;;;;;3.00;2.20;;;12.40;99.90;;;;;;5117550;28;20424;-58
2023/05/12 03:10:17;;;;;;;3.38;2.20;;;12.50;99.90;;;;;;5117244;28;20506;-58
2023/05/12 03:12:45;;;;;;;3.55;2.60;;;12.50;99.90;;;;;;5117455;28;20423;-57
2023/05/12 03:15:12;;;;;;;3.33;2.30;;;12.50;99.90;;;;;;5116703;28;20420;-57
2023/05/12 03:17:39;;;;;;;3.15;2.03;;;12.50;99.90;;;;;;5117029;28;20427;-57
2023/05/12 03:20:07;;;;;;;2.90;2.08;;;12.50;99.90;;;;;;5116744;28;20446;-57
2023/05/12 03:22:35;;;;;;;3.70;2.30;;;12.50;99.90;;;;;;5116931;28;20456;-57
2023/05/12 03:25:03;;;;;;;4.50;2.85;;;12.60;99.90;;;;;;5116955;28;20874;-57
2023/05/12 03:27:32;;;;;;;4.10;2.92;;;12.50;99.90;;;;;;5116677;28;20837;-57
2023/05/12 03:30:00;;;;;;;4.53;3.55;;;12.30;99.90;;;;;;5116483;28;20420;-58
2023/05/12 03:32:28;;;;;;;3.85;3.10;;;12.20;99.90;;;;;;5116778;28;20416;-59
2023/05/12 03:34:55;;;;;;;4.80;3.57;;;12.10;99.90;;;;;;5116816;28;20851;-57
2023/05/12 03:37:22;;;;;;;4.67;3.70;;;12.10;99.90;;;;;;5116460;28;20552;-58
2023/05/12 03:39:50;;;;;;;4.73;3.63;;;12.10;99.90;;;;;;5105582;28;20494;-56
2023/05/12 03:42:18;;;;;;;4.22;2.90;;;12.10;99.90;;;;;;5095633;28;20418;-57
2023/05/12 03:44:46;;;;;;;5.47;3.85;;;12.10;99.90;;;;;;5112862;28;20533;-58
2023/05/12 03:47:13;;;;;;;4.13;2.95;;;12.10;99.90;;;;;;5116121;28;20469;-58
2023/05/12 03:49:40;;;;;;;4.00;3.03;;;12.30;99.90;;;;;;5116801;28;20519;-57
2023/05/12 03:52:07;;;;;;;4.88;2.60;;;12.30;99.90;;;;;;5114995;28;20500;-59
2023/05/12 03:54:34;;;;;;;3.88;3.10;;;12.20;99.90;;;;;;5116358;28;20485;-57
2023/05/12 03:57:02;;;;;;;4.32;2.90;;;12.20;99.90;;;;;;5116042;28;20502;-57
2023/05/12 03:59:31;;;;;;;4.20;2.70;;;12.20;99.90;;;;;;5116166;28;20448;-57
2023/05/12 04:01:59;;;;;;;3.83;3.10;;;12.30;99.90;;;;;;5114358;28;20519;-57
2023/05/12 04:04:26;;;;;;;4.00;3.00;;;12.40;99.90;;;;;;5115128;28;20432;-57
2023/05/12 04:06:53;;;;;;;4.13;3.00;;;12.30;99.90;;;;;;5115117;28;20481;-58
2023/05/12 04:09:20;;;;;;;5.57;3.20;;;12.30;99.90;;;;;;5114622;28;20485;-57
2023/05/12 04:11:47;;;;;;;3.97;3.03;;;12.30;99.90;;;;;;5116059;28;20507;-58
2023/05/12 04:14:14;;;;;;;4.00;2.53;;;12.30;99.90;;;;;;5115786;28;20505;-57
2023/05/12 04:16:41;;;;;;;4.40;2.67;;;12.20;99.90;;;;;;5115709;28;20428;-57
2023/05/12 04:19:10;;;;;;;2.97;2.50;;;12.30;99.90;;;;;;5113950;28;20505;-57
2023/05/12 04:21:37;;;;;;;3.53;2.90;;;12.50;99.90;;;;;;5113369;28;20473;-58
2023/05/12 04:24:05;;;;;;;4.38;3.60;;;12.40;99.90;;;;;;5115784;28;20873;-58
2023/05/12 04:26:32;;;;;;;5.38;3.60;;;12.20;99.90;;;;;;5114135;28;20473;-57
2023/05/12 04:28:59;;;;;;;3.95;3.33;;;12.20;99.90;;;;;;5114741;28;20431;-58
2023/05/12 04:31:26;;;;;;;3.35;2.50;;;12.20;99.90;;;;;;5105877;28;20511;-57
2023/05/12 04:33:54;;;;;;;4.38;2.75;;;12.10;99.90;;;;;;5095433;28;20491;-58
2023/05/12 04:36:23;;;;;;;3.70;2.78;;;12.00;99.90;;;;;;5094239;28;20430;-58
2023/05/12 04:38:50;;;;;;;3.55;2.88;;;11.90;99.90;;;;;;5092294;28;20487;-58
2023/05/12 04:41:20;;;;;;;4.28;2.50;;;11.80;99.90;;;;;;5111430;28;20420;-58
2023/05/12 04:43:47;;;;;;;5.28;3.20;;;11.70;99.90;;;;;;5113397;28;20513;-57
2023/05/12 04:46:14;;;;;;;5.35;2.60;;;11.70;99.90;;;;;;5113727;28;20424;-58
2023/05/12 04:48:42;;;;;;;4.00;2.80;;;11.80;99.90;;;;;;5112648;28;20443;-58
2023/05/12 04:51:09;;;;;;;4.03;2.40;;;11.80;99.90;;;;;;5112857;28;20839;-57
2023/05/12 04:53:37;;;;;;;3.80;2.70;;;11.90;99.90;;;;;;5113618;28;20420;-56
2023/05/12 04:56:05;;;;;;;3.05;2.47;;;12.00;99.90;;;;;;5115221;28;20424;-56
2023/05/12 04:58:32;;;;;;;3.55;2.60;;;12.10;99.90;;;;;;5113362;28;20485;-60
2023/05/12 05:00:59;;;;;;;2.40;2.20;;;12.10;99.90;;;;;;5114334;28;20420;-59
2023/05/12 05:03:26;;;;;;;3.10;2.30;;;12.20;99.90;;;;;;5114469;28;20740;-57
2023/05/12 05:05:53;;;;;;;3.95;2.65;;;12.30;99.90;;;;;;5114423;28;20412;-57
2023/05/12 05:08:20;;;;;;;4.55;2.83;;;12.20;99.90;;;;;;5109316;28;20448;-57
2023/05/12 05:10:51;;;;;;;3.17;2.45;;;12.10;99.90;;;;;;5110529;28;20428;-58
2023/05/12 05:13:18;;;;;;;2.47;1.90;;;12.30;99.90;;;;;;5107022;28;20912;-57
2023/05/12 05:15:51;;;;;;;4.90;3.07;;;12.40;99.90;;;;;;5111527;28;20506;-57
2023/05/12 05:18:19;;;;;;;3.53;2.67;;;12.50;99.90;;;;;;5111473;28;20432;-58
2023/05/12 05:20:46;;;;;;;3.20;2.40;;;12.60;99.90;;;;;;5107718;28;20428;-57
2023/05/12 05:23:13;;;;;;;4.80;2.67;;;12.70;99.90;;;;;;5105899;28;20545;-57
2023/05/12 05:25:41;;;;;;;3.20;2.22;;;12.70;99.90;;;;;;5099900;28;20422;-57
2023/05/12 05:28:09;;;;;;;3.70;2.60;;;12.80;99.90;;;;;;5110687;28;20477;-58
2023/05/12 05:30:36;;;;;;;3.55;2.67;;;12.80;99.90;;;;;;5101518;28;20422;-58
2023/05/12 05:33:04;;;;;;;4.40;3.00;;;12.60;99.90;;;;;;5105223;28;20432;-59
2023/05/12 05:35:31;;;;;;;4.07;3.10;;;12.50;99.90;;;;;;5111441;28;20436;-58
2023/05/12 05:37:58;;;;;;;3.15;2.20;;;12.50;99.90;;;;;;5100982;28;20873;-59
2023/05/12 05:40:25;;;;;;;2.60;2.00;;;12.50;99.90;;;;;;5098768;28;20417;-59
2023/05/12 05:42:52;;;;;;;4.97;2.40;;;12.60;99.90;;;;;;5112505;28;20439;-59
2023/05/12 05:45:21;;;;;;;3.30;2.10;;;12.80;99.90;;;;;;5106550;28;20489;-59
2023/05/12 05:47:50;;;;;;;4.25;2.40;;;12.80;99.90;;;;;;5104888;28;20416;-60
2023/05/12 05:50:17;;;;;;;3.47;2.70;;;12.80;99.90;;;;;;5111271;28;20442;-59
2023/05/12 05:52:44;;;;;;;2.90;2.60;;;12.90;99.90;;;;;;5110937;28;20432;-60
2023/05/12 05:55:11;;;;;;;4.63;2.70;;;13.10;99.90;;;;;;5112002;28;20511;-60
2023/05/12 05:57:38;;;;;;;3.75;2.80;;;13.00;99.90;;;;;;5102553;28;20492;-59
2023/05/12 06:00:08;;;;;;;4.25;2.42;;;13.00;99.90;;;;;;5106821;28;20477;-59
2023/05/12 06:02:37;;;;;;;3.15;2.40;;;13.00;99.90;;;;;;5095901;28;20447;-60
2023/05/12 06:05:05;;;;;;;3.38;2.50;;;13.00;99.90;;;;;;5101555;28;20834;-59
2023/05/12 06:07:32;;;;;;;4.00;2.17;;;12.90;99.90;;;;;;5107210;28;20409;-60
2023/05/12 06:09:59;;;;;;;3.10;2.00;;;13.10;99.90;;;;;;5098854;28;20450;-59
2023/05/12 06:12:26;;;;;;;3.20;1.90;;;13.20;99.90;;;;;;5096524;28;20427;-59
2023/05/12 06:14:53;;;;;;;2.70;2.17;;;13.20;99.90;;;;;;5106465;28;20436;-59
2023/05/12 06:17:20;;;;;;;3.60;2.40;;;13.20;99.90;;;;;;5097225;28;20459;-60
2023/05/12 06:19:49;;;;;;;2.67;1.67;;;13.20;99.90;;;;;;5099973;28;20445;-60
2023/05/12 06:22:17;;;;;;;2.83;1.70;;;13.30;99.90;;;;;;5111976;28;20477;-59
2023/05/12 06:24:44;;;;;;;2.80;1.90;;;13.40;99.90;;;;;;5102257;28;20428;-59
2023/05/12 06:27:11;;;;;;;2.88;1.90;;;13.50;99.90;;;;;;5104455;28;20495;-59
2023/05/12 06:29:38;;;;;;;2.08;1.58;;;13.30;99.90;;;;;;5101719;28;20442;-59
2023/05/12 06:32:06;;;;;;;2.20;1.40;;;13.20;99.90;;;;;;5115914;28;20481;-59
2023/05/12 06:34:33;;;;;;;3.92;2.50;;;13.50;99.90;;;;;;5110626;28;20849;-59
2023/05/12 06:37:01;;;;;;;3.50;2.00;;;13.60;99.90;;;;;;5114153;28;20847;-59
2023/05/12 06:39:28;;;;;;;2.35;1.83;;;13.50;99.90;;;;;;5115172;28;20504;-59
2023/05/12 06:41:55;;;;;;;3.20;1.80;;;13.50;99.90;;;;;;5113378;28;20423;-58
2023/05/12 06:44:24;;;;;;;2.42;1.38;;;13.60;99.90;;;;;;5110034;28;20859;-58
2023/05/12 06:46:52;;;;;;;1.85;1.50;;;13.70;99.90;;;;;;5107465;28;20420;-58
2023/05/12 06:49:19;;;;;;;2.80;1.50;;;13.60;99.90;;;;;;5101165;28;20523;-59
2023/05/12 06:51:46;;;;;;;2.00;1.45;;;13.60;99.90;;;;;;5101955;28;20441;-58
2023/05/12 06:54:15;;;;;;;2.78;2.08;;;13.80;99.90;;;;;;5094684;28;20499;-60
2023/05/12 06:56:42;;;;;;;2.47;1.80;;;13.90;99.90;;;;;;5093832;28;20747;-58
2023/05/12 06:59:10;;;;;;;3.30;1.60;;;13.90;99.90;;;;;;5104116;28;20432;-58
2023/05/12 07:01:37;;;;;;;1.47;1.10;;;13.80;99.90;;;;;;5112613;28;20436;-59
2023/05/12 07:04:04;;;;;;;1.90;1.45;;;13.80;99.90;;;;;;5106212;28;20436;-59
2023/05/12 07:06:33;;;;;;;2.40;1.35;;;13.90;99.90;;;;;;5104963;28;20411;-59
2023/05/12 07:09:00;;;;;;;2.35;1.58;;;13.80;99.90;;;;;;5109965;28;20660;-59
2023/05/12 07:11:28;;;;;;;2.08;1.30;;;13.70;99.90;;;;;;5110783;28;20408;-58
2023/05/12 07:13:55;;;;;;;1.80;1.30;;;13.80;99.90;;;;;;5112194;28;20847;-58
2023/05/12 07:16:23;;;;;;;2.00;1.10;;;14.00;99.90;;;;;;5110810;28;20444;-60
2023/05/12 07:18:50;;;;;;;2.22;1.23;;;14.20;99.90;;;;;;5115148;28;20720;-60
2023/05/12 07:21:17;;;;;;;2.15;1.30;;;14.50;99.90;;;;;;5111020;28;20428;-59
2023/05/12 07:23:44;;;;;;;1.52;1.10;;;14.80;99.90;;;;;;5097553;28;20421;-60
2023/05/12 07:26:11;;;;;;;3.00;1.80;;;15.00;99.90;;;;;;5106534;28;20785;-59
2023/05/12 07:28:40;;;;;;;1.55;1.20;;;15.00;99.90;;;;;;5093405;28;20434;-59
2023/05/12 07:31:07;;;;;;;2.08;1.30;;;15.10;99.90;;;;;;5099119;28;20723;-59
2023/05/12 07:33:35;;;;;;;1.70;1.20;;;15.20;99.90;;;;;;5112283;28;20428;-57
2023/05/12 07:36:03;;;;;;;2.50;1.30;;;15.20;99.90;;;;;;5112269;28;20465;-58
2023/05/12 07:38:30;;;;;;;1.58;1.10;;;15.20;99.90;;;;;;5103472;28;20453;-59
2023/05/12 07:40:59;;;;;;;2.78;1.40;;;15.30;99.90;;;;;;5108432;28;20420;-60
2023/05/12 07:43:26;;;;;;;1.70;1.20;;;15.30;99.90;;;;;;5103752;28;20428;-59
2023/05/12 07:45:55;;;;;;;1.83;1.10;;;15.20;99.90;;;;;;5105985;28;20420;-60
2023/05/12 07:48:22;;;;;;;2.97;1.58;;;15.40;99.90;;;;;;5112771;28;20447;-60
2023/05/12 07:50:49;;;;;;;1.30;1.00;;;15.40;99.90;;;;;;5101832;28;20435;-60
2023/05/12 07:53:16;;;;;;;1.50;1.00;;;15.40;99.90;;;;;;5110114;28;20432;-59
2023/05/12 07:55:43;;;;;;;1.48;1.00;;;15.50;99.90;;;;;;5107172;28;20420;-60
2023/05/12 07:58:10;;;;;;;1.35;1.00;;;15.80;99.90;;;;;;5105590;28;20428;-59
2023/05/12 08:00:37;;;;;;;1.50;0.80;;;15.80;99.90;;;;;;5100579;28;20520;-59
2023/05/12 08:03:06;;;;;;;1.10;0.80;;;15.70;99.90;;;;;;5105385;28;20421;-59
2023/05/12 08:05:33;;;;;;;1.20;0.80;;;15.60;99.90;;;;;;5099492;28;20444;-59
2023/05/12 08:08:00;;;;;;;2.00;0.80;;;15.60;99.90;;;;;;5098675;28;20776;-60
2023/05/12 08:10:31;;;;;;;2.40;0.80;;;15.50;99.90;;;;;;5108694;28;20419;-60
2023/05/12 08:12:58;;;;;;;1.20;0.80;;;15.80;99.90;;;;;;5094284;28;20439;-59
2023/05/12 08:15:25;;;;;;;1.30;0.90;;;15.60;99.90;;;;;;5103054;28;20475;-60
2023/05/12 08:17:52;;;;;;;4.32;1.60;;;15.50;99.90;;;;;;5112038;28;20504;-60
2023/05/12 08:20:21;;;;;;;1.30;1.00;;;15.60;99.90;;;;;;5096112;28;20421;-60
2023/05/12 08:22:49;;;;;;;1.30;0.90;;;15.60;99.90;;;;;;5095735;28;20871;-60
2023/05/12 08:25:16;;;;;;;2.10;0.90;;;15.40;99.90;;;;;;5105028;28;20417;-60
2023/05/12 08:27:44;;;;;;;1.60;0.90;;;15.60;99.90;;;;;;5102152;28;20416;-60
2023/05/12 08:30:12;;;;;;;1.20;0.80;;;15.70;99.90;;;;;;5095464;28;20521;-59
2023/05/12 08:32:39;;;;;;;1.10;0.80;;;16.00;99.90;;;;;;5107107;28;20432;-59
2023/05/12 08:35:06;;;;;;;1.40;0.80;;;16.30;99.90;;;;;;5098231;28;20416;-60
2023/05/12 08:37:35;;;;;;;1.50;0.90;;;16.60;99.90;;;;;;5101818;28;20506;-59
2023/05/12 08:40:12;;;;;;;1.30;1.00;;;16.40;99.90;;;;;;5105278;28;20420;-59
2023/05/12 08:42:43;;;;;;;1.13;0.80;;;16.10;99.90;;;;;;5108987;28;20773;-59
2023/05/12 08:45:11;;;;;;;2.15;0.90;;;16.10;99.90;;;;;;5099934;28;20492;-59
2023/05/12 08:47:39;;;;;;;0.90;0.70;;;16.10;99.90;;;;;;5102049;28;20849;-59
2023/05/12 08:50:08;;;;;;;1.00;0.60;;;16.20;99.90;;;;;;5104965;28;20506;-59
2023/05/12 08:52:37;;;;;;;0.90;0.60;;;16.30;99.90;;;;;;5109692;28;20428;-59
2023/05/12 08:55:05;;;;;;;0.80;0.60;;;16.00;99.90;;;;;;5099175;28;20432;-60
2023/05/12 08:57:33;;;;;;;0.95;0.60;;;15.70;99.90;;;;;;5110934;28;20424;-60
2023/05/12 09:00:04;;;;;;;0.80;0.52;;;15.70;99.90;;;;;;5105662;28;20863;-60
2023/05/12 09:02:32;;;;;;;1.10;0.70;;;15.80;99.90;;;;;;5106421;28;20420;-60
2023/05/12 09:04:59;;;;;;;1.10;0.70;;;16.10;99.90;;;;;;5090011;28;20482;-60
2023/05/12 09:07:27;;;;;;;1.00;0.73;;;16.30;99.90;;;;;;5079941;28;20472;-60
2023/05/12 09:09:58;;;;;;;1.10;0.70;;;16.20;99.90;;;;;;5096549;28;20429;-60
2023/05/12 09:12:29;;;;;;;1.10;0.70;;;16.00;99.90;;;;;;5105026;28;20416;-58
2023/05/12 09:15:03;;;;;;;1.90;0.90;;;16.10;99.90;;;;;;5090491;28;20924;-59
2023/05/12 09:17:30;;;;;;;1.05;0.80;;;16.30;99.90;;;;;;5094461;28;20728;-59
2023/05/12 09:19:57;;;;;;;1.33;1.00;;;16.50;99.90;;;;;;5102665;28;20420;-60
2023/05/12 09:22:28;;;;;;;1.20;0.90;;;16.40;99.90;;;;;;5093465;28;20429;-60
2023/05/12 09:24:57;;;;;;;1.20;0.80;;;16.40;99.90;;;;;;5105417;28;20436;-59
2023/05/12 09:27:25;;;;;;;1.20;0.82;;;16.50;99.90;;;;;;5113068;28;20704;-57
2023/05/12 09:29:53;;;;;;;1.10;0.70;;;16.70;99.90;;;;;;5100469;28;20516;-59
2023/05/12 09:32:31;;;;;;;1.30;0.85;;;16.60;99.90;;;;;;5109079;28;20420;-59
2023/05/12 09:35:02;;;;;;;1.10;0.80;;;16.50;99.90;;;;;;5104979;28;20545;-59
2023/05/12 09:37:34;;;;;;;1.00;0.80;;;16.50;99.90;;;;;;5105604;28;20466;-59
2023/05/12 09:40:03;;;;;;;1.20;0.70;;;16.60;99.90;;;;;;5098660;28;20907;-60
2023/05/12 09:42:32;;;;;;;1.10;0.70;;;16.90;99.90;;;;;;5111899;28;20435;-60
2023/05/12 09:45:00;;;;;;;1.98;1.00;;;17.20;99.90;;;;;;5113666;28;20488;-57
2023/05/12 09:47:35;;;;;;;1.00;0.70;;;17.10;99.90;;;;;;5112347;28;20441;-60
2023/05/12 09:50:02;;;;;;;1.30;0.70;;;17.00;99.90;;;;;;5112185;28;20893;-60
2023/05/12 09:52:31;;;;;;;0.95;0.70;;;16.90;99.90;;;;;;5110581;28;20423;-59
2023/05/12 09:55:08;;;;;;;0.98;0.73;;;16.70;99.90;;;;;;5115614;28;20423;-59
2023/05/12 09:57:40;;;;;;;0.90;0.70;;;16.60;99.90;;;;;;5115340;28;20435;-58
2023/05/12 10:00:10;;;;;;;0.82;0.70;;;16.60;99.90;;;;;;5109704;28;20728;-59
2023/05/12 10:02:41;;;;;;;0.90;0.70;;;16.70;99.90;;;;;;5110447;28;20420;-59
2023/05/12 10:05:13;;;;;;;1.10;0.80;;;16.80;99.90;;;;;;5099636;28;20420;-59
2023/05/12 10:07:41;;;;;;;1.50;0.85;;;16.80;99.90;;;;;;5109952;28;20488;-59
2023/05/12 10:10:17;;;;;;;1.00;0.70;;;16.80;99.90;;;;;;5097562;28;20479;-59
2023/05/12 10:12:45;;;;;;;0.90;0.70;;;16.80;99.90;;;;;;5108268;28;20432;-59
2023/05/12 10:15:14;;;;;;;1.00;0.80;;;16.70;99.90;;;;;;5101698;28;20416;-59
2023/05/12 10:17:41;;;;;;;1.37;0.80;;;16.80;99.90;;;;;;5104351;28;20426;-59
2023/05/12 10:20:09;;;;;;;0.90;0.70;;;16.80;99.90;;;;;;5108975;28;20465;-59
2023/05/12 10:22:39;;;;;;;1.08;0.80;;;16.80;99.90;;;;;;5115015;28;20412;-58
2023/05/12 10:25:07;;;;;;;1.00;0.80;;;16.90;99.90;;;;;;5108968;28;20417;-59
2023/05/12 10:27:36;;;;;;;1.10;0.80;;;17.10;99.90;;;;;;5095231;28;20473;-59
2023/05/12 10:30:06;;;;;;;0.80;0.70;;;16.90;99.90;;;;;;5107092;28;20758;-59
2023/05/12 10:32:33;;;;;;;0.90;0.70;;;16.90;99.90;;;;;;5113397;28;20586;-59
2023/05/12 10:35:08;;;;;;;0.90;0.70;;;16.80;99.90;;;;;;5106621;28;20465;-59
2023/05/12 10:37:36;;;;;;;0.90;0.70;;;17.00;99.90;;;;;;5093825;28;20429;-60
2023/05/12 10:40:05;;;;;;;0.80;0.70;;;17.30;99.90;;;;;;5091227;28;20421;-60
2023/05/12 10:42:40;;;;;;;0.90;0.70;;;17.50;99.90;;;;;;5110378;28;20428;-58
2023/05/12 10:45:17;;;;;;;1.38;0.60;;;17.70;99.90;;;;;;5108695;28;20428;-59
2023/05/12 10:47:45;;;;;;;1.90;0.70;;;18.00;99.90;;;;;;5116058;28;20443;-59
2023/05/12 10:50:13;;;;;;;0.90;0.70;;;18.30;99.90;;;;;;5110591;28;20432;-59
2023/05/12 10:52:40;;;;;;;1.30;0.60;;;18.70;99.90;;;;;;5110817;28;20492;-59
2023/05/12 10:55:13;;;;;;;1.90;0.60;;;18.80;99.90;;;;;;5094166;28;20470;-59
2023/05/12 10:57:50;;;;;;;0.90;0.70;;;18.70;99.90;;;;;;5105120;28;20520;-59
2023/05/12 11:00:22;;;;;;;0.90;0.70;;;18.60;99.90;;;;;;5114152;28;20424;-59
2023/05/12 11:02:50;;;;;;;0.85;0.70;;;18.40;99.90;;;;;;5114258;28;20792;-59
2023/05/12 11:05:17;;;;;;;0.90;0.70;;;18.30;99.90;;;;;;5104857;28;20506;-59
2023/05/12 11:07:48;;;;;;;1.40;0.90;;;18.20;99.90;;;;;;5111751;28;20499;-58
2023/05/12 11:10:15;;;;;;;1.00;0.70;;;17.70;99.90;;;;;;5098944;28;20443;-59
2023/05/12 11:12:44;;;;;;;1.10;0.70;;;17.50;99.90;;;;;;5098100;28;20416;-58
2023/05/12 11:15:14;;;;;;;0.98;0.70;;;17.20;99.90;;;;;;5110838;28;20489;-54
2023/05/12 11:17:41;;;;;;;1.10;0.80;;;17.10;99.90;;;;;;5102251;28;20430;-57
2023/05/12 11:20:09;;;;;;;0.82;0.60;;;17.00;99.90;;;;;;5108414;28;20749;-59
2023/05/12 11:22:37;;;;;;;0.80;0.60;;;17.00;99.90;;;;;;5094127;28;20424;-56
2023/05/12 11:25:11;;;;;;;0.90;0.60;;;16.90;99.90;;;;;;5104113;28;20430;-57
2023/05/12 11:27:42;;;;;;;1.08;0.70;;;16.50;99.90;;;;;;5088212;28;20639;-56
2023/05/12 11:30:10;;;;;;;1.20;0.80;;;16.40;99.90;;;;;;5104997;28;20465;-56
2023/05/12 11:32:39;;;;;;;1.15;0.80;;;16.50;99.90;;;;;;5095351;28;20490;-53
2023/05/12 11:35:13;;;;;;;1.02;0.80;;;16.60;99.90;;;;;;5110590;28;20892;-55
2023/05/12 11:37:41;;;;;;;1.20;0.80;;;16.50;99.90;;;;;;5100153;28;20428;-56
2023/05/12 11:40:15;;;;;;;1.17;0.90;;;16.60;1.00;;;;;;5112120;28;20421;-53
2023/05/12 11:42:47;;;;;;;3.13;2.20;;;16.50;1.00;;;;;;5109981;28;20428;-53
2023/05/12 11:45:25;;;;;;;1.20;0.90;;;16.50;1.00;;;;;;5108685;28;20426;-52
2023/05/12 11:48:05;;;;;;;1.70;0.70;;;16.40;1.00;;;;;;5106440;28;20825;-49
2023/05/12 11:50:33;;;;;;;1.55;0.80;;;16.10;1.00;;;;;;5099983;28;20890;-50
2023/05/12 11:53:00;;;;;;;1.70;0.80;;;15.70;1.00;;;;;;5111101;28;20424;-52
2023/05/12 11:55:27;;;;;;;1.38;0.60;;;15.80;1.00;;;;;;5110314;28;20419;-51
2023/05/12 11:57:59;;;;;;;0.75;0.55;;;15.80;1.00;;;;;;5094743;28;20485;-53
2023/05/12 12:00:31;;;;;;;1.30;1.20;;;15.80;99.90;;;;;;5103880;28;20715;-52
2023/05/12 12:03:11;;;;;;;1.00;0.70;;;15.50;1.00;;;;;;5103064;28;20770;-53
2023/05/12 12:05:38;;;;;;;1.10;0.70;;;15.60;1.00;;;;;;5108974;28;20729;-54
2023/05/12 12:08:07;;;;;;;1.50;0.70;;;15.60;1.00;;;;;;5104281;28;20428;-56
2023/05/12 12:10:34;;;;;;;0.93;0.70;;;15.70;1.00;;;;;;5101115;28;20429;-54
2023/05/12 12:13:02;;;;;;;1.00;0.80;;;15.80;1.00;;;;;;5103122;28;20435;-51
2023/05/12 12:15:29;;;;;;;1.35;0.80;;;15.70;1.00;;;;;;5093232;28;20434;-52
2023/05/12 12:17:57;;;;;;;1.10;0.90;;;15.70;1.00;;;;;;5109579;28;20457;-54
2023/05/12 12:20:25;;;;;;;1.10;0.80;;;15.70;1.00;;;;;;5099657;28;20918;-54
2023/05/12 12:22:53;;;;;;;1.33;0.90;;;15.80;1.00;;;;;;5107994;28;20436;-54
2023/05/12 12:25:23;;;;;;;1.00;0.70;;;16.20;1.00;;;;;;5099465;28;20734;-51
2023/05/12 12:27:51;;;;;;;1.00;0.70;;;16.50;1.00;;;;;;5095033;28;20420;-56
2023/05/12 12:30:18;;;;;;;1.00;0.80;;;16.80;1.00;;;;;;5103274;28;21138;-56
2023/05/12 12:32:46;;;;;;;1.00;0.80;;;17.00;99.90;;;;;;5109763;28;20524;-54
2023/05/12 12:35:13;;;;;;;0.90;0.70;;;17.20;99.90;;;;;;5109991;28;21114;-55
2023/05/12 12:37:42;;;;;;;1.10;0.80;;;17.30;99.90;;;;;;5109712;28;20428;-57
2023/05/12 12:40:10;;;;;;;1.00;0.70;;;17.40;99.90;;;;;;5111579;28;20598;-56
2023/05/12 12:42:40;;;;;;;1.15;0.80;;;17.40;99.90;;;;;;5111254;28;20477;-56
2023/05/12 12:45:08;;;;;;;1.20;0.88;;;17.60;99.90;;;;;;5111822;28;20416;-53
2023/05/12 12:47:37;;;;;;;1.25;0.70;;;18.00;99.90;;;;;;5110612;28;20428;-53
2023/05/12 12:50:06;;;;;;;1.00;0.70;;;18.60;36.30;;;;;;5113770;28;20920;-55
2023/05/12 12:52:33;;;;;;;0.90;0.60;;;18.70;1.00;;;;;;5113286;28;20420;-56